sensor_id;sensor_type;location;lat;lon;timestamp;P1;durP1;ratioP1;P2;durP2;ratioP2
47173;SDS011;36730;49.036;9.094;2022-10-16T00:01:16;180.48;;;97.38;;
47173;SDS011;36730;49.036;9.094;2022-10-16T00:03:43;194.85;;;100.82;;
47173;SDS011;36730;49.036;9.094;2022-10-16T00:06:10;178.70;;;98.10;;
47173;SDS011;36730;49.036;9.094;2022-10-16T00:11:03;177.57;;;97.90;;
47173;SDS011;36730;49.036;9.094;2022-10-16T00:13:31;177.52;;;96.30;;
47173;SDS011;36730;49.036;9.094;2022-10-16T00:15:59;170.95;;;94.70;;
47173;SDS011;36730;49.036;9.094;2022-10-16T00:18:26;174.88;;;97.60;;
47173;SDS011;36730;49.036;9.094;2022-10-16T00:20:52;184.77;;;100.00;;
47173;SDS011;36730;49.036;9.094;2022-10-16T00:23:18;179.05;;;99.93;;
47173;SDS011;36730;49.036;9.094;2022-10-16T00:25:44;189.80;;;102.88;;
47173;SDS011;36730;49.036;9.094;2022-10-16T00:28:09;185.77;;;105.97;;
47173;SDS011;36730;49.036;9.094;2022-10-16T00:30:37;192.20;;;102.83;;
47173;SDS011;36730;49.036;9.094;2022-10-16T00:33:03;195.40;;;103.30;;
47173;SDS011;36730;49.036;9.094;2022-10-16T00:35:30;186.20;;;100.40;;
47173;SDS011;36730;49.036;9.094;2022-10-16T00:37:55;195.70;;;102.97;;
47173;SDS011;36730;49.036;9.094;2022-10-16T00:40:21;179.70;;;99.17;;
47173;SDS011;36730;49.036;9.094;2022-10-16T00:42:46;191.17;;;103.80;;
47173;SDS011;36730;49.036;9.094;2022-10-16T00:45:12;198.00;;;103.97;;
47173;SDS011;36730;49.036;9.094;2022-10-16T00:47:39;186.57;;;98.23;;
47173;SDS011;36730;49.036;9.094;2022-10-16T00:52:39;176.52;;;101.40;;
47173;SDS011;36730;49.036;9.094;2022-10-16T00:55:09;180.27;;;99.07;;
47173;SDS011;36730;49.036;9.094;2022-10-16T00:57:34;183.00;;;104.20;;
47173;SDS011;36730;49.036;9.094;2022-10-16T01:00:02;185.63;;;105.07;;
47173;SDS011;36730;49.036;9.094;2022-10-16T01:02:30;183.43;;;99.25;;
47173;SDS011;36730;49.036;9.094;2022-10-16T01:04:55;194.43;;;105.65;;
47173;SDS011;36730;49.036;9.094;2022-10-16T01:10:41;177.32;;;98.25;;
47173;SDS011;36730;49.036;9.094;2022-10-16T01:13:11;170.05;;;97.88;;
47173;SDS011;36730;49.036;9.094;2022-10-16T01:15:47;172.93;;;99.38;;
47173;SDS011;36730;49.036;9.094;2022-10-16T01:18:19;184.95;;;100.70;;
47173;SDS011;36730;49.036;9.094;2022-10-16T01:28:49;187.68;;;104.93;;
47173;SDS011;36730;49.036;9.094;2022-10-16T01:31:22;194.02;;;107.70;;
47173;SDS011;36730;49.036;9.094;2022-10-16T01:33:53;172.82;;;100.68;;
47173;SDS011;36730;49.036;9.094;2022-10-16T01:36:26;187.13;;;102.55;;
47173;SDS011;36730;49.036;9.094;2022-10-16T01:39:00;194.80;;;104.65;;
47173;SDS011;36730;49.036;9.094;2022-10-16T01:41:31;199.30;;;104.45;;
47173;SDS011;36730;49.036;9.094;2022-10-16T01:46:34;193.60;;;106.15;;
47173;SDS011;36730;49.036;9.094;2022-10-16T01:49:02;190.35;;;103.20;;
47173;SDS011;36730;49.036;9.094;2022-10-16T01:51:29;188.88;;;102.32;;
47173;SDS011;36730;49.036;9.094;2022-10-16T01:53:55;197.00;;;103.18;;
47173;SDS011;36730;49.036;9.094;2022-10-16T01:56:25;183.80;;;103.93;;
47173;SDS011;36730;49.036;9.094;2022-10-16T02:01:26;192.23;;;105.65;;
47173;SDS011;36730;49.036;9.094;2022-10-16T02:03:54;191.45;;;103.90;;
47173;SDS011;36730;49.036;9.094;2022-10-16T02:06:22;188.25;;;105.13;;
47173;SDS011;36730;49.036;9.094;2022-10-16T02:08:48;182.43;;;101.32;;
47173;SDS011;36730;49.036;9.094;2022-10-16T02:11:14;177.20;;;101.75;;
47173;SDS011;36730;49.036;9.094;2022-10-16T02:13:44;192.23;;;104.77;;
47173;SDS011;36730;49.036;9.094;2022-10-16T02:16:13;189.63;;;103.97;;
47173;SDS011;36730;49.036;9.094;2022-10-16T02:18:39;185.60;;;101.15;;
47173;SDS011;36730;49.036;9.094;2022-10-16T02:23:45;189.07;;;103.70;;
47173;SDS011;36730;49.036;9.094;2022-10-16T02:26:17;184.52;;;103.20;;
47173;SDS011;36730;49.036;9.094;2022-10-16T02:28:52;175.63;;;102.07;;
47173;SDS011;36730;49.036;9.094;2022-10-16T02:31:25;189.65;;;104.78;;
47173;SDS011;36730;49.036;9.094;2022-10-16T02:33:54;194.15;;;103.43;;
47173;SDS011;36730;49.036;9.094;2022-10-16T02:36:23;188.15;;;103.25;;
47173;SDS011;36730;49.036;9.094;2022-10-16T02:38:49;188.80;;;103.32;;
47173;SDS011;36730;49.036;9.094;2022-10-16T02:41:15;190.30;;;103.22;;
47173;SDS011;36730;49.036;9.094;2022-10-16T02:43:41;196.03;;;108.43;;
47173;SDS011;36730;49.036;9.094;2022-10-16T02:46:06;190.90;;;107.53;;
47173;SDS011;36730;49.036;9.094;2022-10-16T02:48:32;185.77;;;103.28;;
47173;SDS011;36730;49.036;9.094;2022-10-16T02:50:58;181.00;;;101.77;;
47173;SDS011;36730;49.036;9.094;2022-10-16T02:53:23;215.00;;;110.00;;
47173;SDS011;36730;49.036;9.094;2022-10-16T02:55:49;184.80;;;103.97;;
47173;SDS011;36730;49.036;9.094;2022-10-16T02:58:14;197.73;;;107.60;;
47173;SDS011;36730;49.036;9.094;2022-10-16T03:00:40;189.98;;;103.90;;
47173;SDS011;36730;49.036;9.094;2022-10-16T03:03:06;198.77;;;102.30;;
47173;SDS011;36730;49.036;9.094;2022-10-16T03:05:32;192.87;;;103.57;;
47173;SDS011;36730;49.036;9.094;2022-10-16T03:07:58;183.10;;;103.47;;
47173;SDS011;36730;49.036;9.094;2022-10-16T03:10:25;184.02;;;105.03;;
47173;SDS011;36730;49.036;9.094;2022-10-16T03:12:51;184.82;;;105.05;;
47173;SDS011;36730;49.036;9.094;2022-10-16T03:15:17;191.27;;;103.47;;
47173;SDS011;36730;49.036;9.094;2022-10-16T03:17:42;194.70;;;101.73;;
47173;SDS011;36730;49.036;9.094;2022-10-16T03:20:08;184.47;;;101.83;;
47173;SDS011;36730;49.036;9.094;2022-10-16T03:22:34;175.15;;;102.43;;
47173;SDS011;36730;49.036;9.094;2022-10-16T03:25:00;191.73;;;105.20;;
47173;SDS011;36730;49.036;9.094;2022-10-16T03:27:25;186.27;;;100.47;;
47173;SDS011;36730;49.036;9.094;2022-10-16T03:29:51;180.30;;;100.50;;
47173;SDS011;36730;49.036;9.094;2022-10-16T03:32:16;196.77;;;106.43;;
47173;SDS011;36730;49.036;9.094;2022-10-16T03:34:42;181.30;;;104.10;;
47173;SDS011;36730;49.036;9.094;2022-10-16T03:37:07;173.73;;;101.43;;
47173;SDS011;36730;49.036;9.094;2022-10-16T03:39:33;191.00;;;105.33;;
47173;SDS011;36730;49.036;9.094;2022-10-16T03:41:58;179.03;;;99.80;;
47173;SDS011;36730;49.036;9.094;2022-10-16T03:44:24;167.10;;;99.93;;
47173;SDS011;36730;49.036;9.094;2022-10-16T03:46:49;165.57;;;96.60;;
47173;SDS011;36730;49.036;9.094;2022-10-16T03:49:15;186.27;;;99.97;;
47173;SDS011;36730;49.036;9.094;2022-10-16T03:51:41;179.33;;;99.10;;
47173;SDS011;36730;49.036;9.094;2022-10-16T03:54:06;163.17;;;94.10;;
47173;SDS011;36730;49.036;9.094;2022-10-16T03:56:32;170.30;;;96.60;;
47173;SDS011;36730;49.036;9.094;2022-10-16T03:58:57;154.70;;;90.47;;
47173;SDS011;36730;49.036;9.094;2022-10-16T04:01:23;166.63;;;98.53;;
47173;SDS011;36730;49.036;9.094;2022-10-16T04:03:49;160.27;;;92.97;;
47173;SDS011;36730;49.036;9.094;2022-10-16T04:06:14;160.20;;;91.83;;
47173;SDS011;36730;49.036;9.094;2022-10-16T04:08:42;168.57;;;94.83;;
47173;SDS011;36730;49.036;9.094;2022-10-16T04:11:08;163.35;;;94.63;;
47173;SDS011;36730;49.036;9.094;2022-10-16T04:13:33;157.20;;;92.87;;
47173;SDS011;36730;49.036;9.094;2022-10-16T04:15:59;156.60;;;90.87;;
47173;SDS011;36730;49.036;9.094;2022-10-16T04:18:25;153.43;;;93.40;;
47173;SDS011;36730;49.036;9.094;2022-10-16T04:20:52;155.60;;;91.22;;
47173;SDS011;36730;49.036;9.094;2022-10-16T04:23:18;161.00;;;91.25;;
47173;SDS011;36730;49.036;9.094;2022-10-16T04:25:43;157.03;;;91.60;;
47173;SDS011;36730;49.036;9.094;2022-10-16T04:28:09;144.93;;;90.47;;
47173;SDS011;36730;49.036;9.094;2022-10-16T04:30:34;159.57;;;88.83;;
47173;SDS011;36730;49.036;9.094;2022-10-16T04:33:02;144.88;;;87.32;;
47173;SDS011;36730;49.036;9.094;2022-10-16T04:35:27;149.97;;;88.30;;
47173;SDS011;36730;49.036;9.094;2022-10-16T04:37:53;151.43;;;86.90;;
47173;SDS011;36730;49.036;9.094;2022-10-16T04:40:18;141.87;;;86.63;;
47173;SDS011;36730;49.036;9.094;2022-10-16T04:42:44;147.43;;;86.77;;
47173;SDS011;36730;49.036;9.094;2022-10-16T04:45:09;140.27;;;87.77;;
47173;SDS011;36730;49.036;9.094;2022-10-16T04:47:35;133.67;;;83.07;;
47173;SDS011;36730;49.036;9.094;2022-10-16T04:50:01;148.90;;;90.00;;
47173;SDS011;36730;49.036;9.094;2022-10-16T04:52:27;144.10;;;87.30;;
47173;SDS011;36730;49.036;9.094;2022-10-16T04:54:53;147.35;;;85.68;;
47173;SDS011;36730;49.036;9.094;2022-10-16T04:57:19;144.43;;;81.60;;
47173;SDS011;36730;49.036;9.094;2022-10-16T04:59:44;147.17;;;84.77;;
47173;SDS011;36730;49.036;9.094;2022-10-16T05:02:10;146.13;;;84.90;;
47173;SDS011;36730;49.036;9.094;2022-10-16T05:04:35;140.20;;;82.47;;
47173;SDS011;36730;49.036;9.094;2022-10-16T05:07:01;138.47;;;82.73;;
47173;SDS011;36730;49.036;9.094;2022-10-16T05:09:27;131.23;;;79.53;;
47173;SDS011;36730;49.036;9.094;2022-10-16T05:11:52;133.07;;;79.13;;
47173;SDS011;36730;49.036;9.094;2022-10-16T05:14:18;135.10;;;80.60;;
47173;SDS011;36730;49.036;9.094;2022-10-16T05:16:43;135.37;;;81.10;;
47173;SDS011;36730;49.036;9.094;2022-10-16T05:19:09;133.07;;;78.00;;
47173;SDS011;36730;49.036;9.094;2022-10-16T05:21:35;128.93;;;78.63;;
47173;SDS011;36730;49.036;9.094;2022-10-16T05:24:00;130.30;;;78.83;;
47173;SDS011;36730;49.036;9.094;2022-10-16T05:26:26;133.80;;;79.70;;
47173;SDS011;36730;49.036;9.094;2022-10-16T05:28:51;133.17;;;80.03;;
47173;SDS011;36730;49.036;9.094;2022-10-16T05:31:17;131.93;;;77.00;;
47173;SDS011;36730;49.036;9.094;2022-10-16T05:33:42;132.03;;;76.17;;
47173;SDS011;36730;49.036;9.094;2022-10-16T05:36:09;117.00;;;73.22;;
47173;SDS011;36730;49.036;9.094;2022-10-16T05:38:35;124.47;;;75.90;;
47173;SDS011;36730;49.036;9.094;2022-10-16T05:41:02;124.55;;;76.13;;
47173;SDS011;36730;49.036;9.094;2022-10-16T05:43:29;123.13;;;72.53;;
47173;SDS011;36730;49.036;9.094;2022-10-16T05:45:56;125.40;;;75.82;;
47173;SDS011;36730;49.036;9.094;2022-10-16T05:48:23;121.00;;;73.82;;
47173;SDS011;36730;49.036;9.094;2022-10-16T05:50:55;118.05;;;71.50;;
47173;SDS011;36730;49.036;9.094;2022-10-16T05:53:22;109.70;;;70.43;;
47173;SDS011;36730;49.036;9.094;2022-10-16T05:55:54;126.65;;;74.07;;
47173;SDS011;36730;49.036;9.094;2022-10-16T05:58:20;117.07;;;69.80;;
47173;SDS011;36730;49.036;9.094;2022-10-16T06:00:57;114.32;;;71.13;;
47173;SDS011;36730;49.036;9.094;2022-10-16T06:03:24;118.53;;;72.45;;
47173;SDS011;36730;49.036;9.094;2022-10-16T06:05:50;122.57;;;71.75;;
47173;SDS011;36730;49.036;9.094;2022-10-16T06:08:16;118.40;;;72.55;;
47173;SDS011;36730;49.036;9.094;2022-10-16T06:10:43;109.35;;;70.22;;
47173;SDS011;36730;49.036;9.094;2022-10-16T06:13:10;114.55;;;70.40;;
47173;SDS011;36730;49.036;9.094;2022-10-16T06:18:03;117.32;;;70.82;;
47173;SDS011;36730;49.036;9.094;2022-10-16T06:20:29;109.65;;;69.93;;
47173;SDS011;36730;49.036;9.094;2022-10-16T06:22:55;110.40;;;68.10;;
47173;SDS011;36730;49.036;9.094;2022-10-16T06:25:21;107.07;;;67.40;;
47173;SDS011;36730;49.036;9.094;2022-10-16T06:27:47;116.07;;;69.97;;
47173;SDS011;36730;49.036;9.094;2022-10-16T06:30:12;115.00;;;68.63;;
47173;SDS011;36730;49.036;9.094;2022-10-16T06:32:38;111.63;;;69.07;;
47173;SDS011;36730;49.036;9.094;2022-10-16T06:35:03;106.53;;;67.43;;
47173;SDS011;36730;49.036;9.094;2022-10-16T06:37:29;105.95;;;66.28;;
47173;SDS011;36730;49.036;9.094;2022-10-16T06:39:54;106.20;;;65.37;;
47173;SDS011;36730;49.036;9.094;2022-10-16T06:42:20;99.77;;;65.30;;
47173;SDS011;36730;49.036;9.094;2022-10-16T06:44:45;97.27;;;63.40;;
47173;SDS011;36730;49.036;9.094;2022-10-16T06:47:11;101.97;;;64.53;;
47173;SDS011;36730;49.036;9.094;2022-10-16T06:49:37;110.73;;;65.90;;
47173;SDS011;36730;49.036;9.094;2022-10-16T06:52:02;98.73;;;62.50;;
47173;SDS011;36730;49.036;9.094;2022-10-16T06:54:28;103.80;;;64.32;;
47173;SDS011;36730;49.036;9.094;2022-10-16T06:56:54;89.60;;;61.20;;
47173;SDS011;36730;49.036;9.094;2022-10-16T06:59:20;103.38;;;65.30;;
47173;SDS011;36730;49.036;9.094;2022-10-16T07:06:37;94.32;;;57.05;;
47173;SDS011;36730;49.036;9.094;2022-10-16T07:09:04;84.30;;;49.30;;
47173;SDS011;36730;49.036;9.094;2022-10-16T07:11:32;73.00;;;45.28;;
47173;SDS011;36730;49.036;9.094;2022-10-16T07:18:50;66.43;;;42.55;;
47173;SDS011;36730;49.036;9.094;2022-10-16T07:21:21;69.85;;;43.15;;
47173;SDS011;36730;49.036;9.094;2022-10-16T07:23:51;69.57;;;42.85;;
47173;SDS011;36730;49.036;9.094;2022-10-16T07:26:20;72.55;;;44.03;;
47173;SDS011;36730;49.036;9.094;2022-10-16T07:28:47;69.13;;;45.78;;
47173;SDS011;36730;49.036;9.094;2022-10-16T07:31:13;77.97;;;46.10;;
47173;SDS011;36730;49.036;9.094;2022-10-16T07:33:40;94.07;;;56.03;;
47173;SDS011;36730;49.036;9.094;2022-10-16T07:36:08;118.68;;;61.90;;
47173;SDS011;36730;49.036;9.094;2022-10-16T07:38:34;106.72;;;59.97;;
47173;SDS011;36730;49.036;9.094;2022-10-16T07:41:00;116.10;;;61.53;;
47173;SDS011;36730;49.036;9.094;2022-10-16T07:43:28;110.53;;;60.63;;
47173;SDS011;36730;49.036;9.094;2022-10-16T07:45:54;140.88;;;70.93;;
47173;SDS011;36730;49.036;9.094;2022-10-16T07:48:20;130.73;;;72.13;;
47173;SDS011;36730;49.036;9.094;2022-10-16T07:50:47;129.02;;;68.93;;
47173;SDS011;36730;49.036;9.094;2022-10-16T07:53:13;161.38;;;80.35;;
47173;SDS011;36730;49.036;9.094;2022-10-16T07:55:38;160.80;;;84.93;;
47173;SDS011;36730;49.036;9.094;2022-10-16T07:58:04;169.77;;;85.17;;
47173;SDS011;36730;49.036;9.094;2022-10-16T08:02:56;172.20;;;84.85;;
47173;SDS011;36730;49.036;9.094;2022-10-16T08:05:26;161.95;;;83.40;;
47173;SDS011;36730;49.036;9.094;2022-10-16T08:07:56;187.60;;;93.30;;
47173;SDS011;36730;49.036;9.094;2022-10-16T08:10:22;163.33;;;84.60;;
47173;SDS011;36730;49.036;9.094;2022-10-16T08:12:50;194.02;;;96.63;;
47173;SDS011;36730;49.036;9.094;2022-10-16T08:15:16;174.77;;;93.22;;
47173;SDS011;36730;49.036;9.094;2022-10-16T08:17:41;179.90;;;97.15;;
47173;SDS011;36730;49.036;9.094;2022-10-16T08:20:07;179.23;;;92.57;;
47173;SDS011;36730;49.036;9.094;2022-10-16T08:22:33;212.63;;;101.03;;
47173;SDS011;36730;49.036;9.094;2022-10-16T08:24:59;191.60;;;96.73;;
47173;SDS011;36730;49.036;9.094;2022-10-16T08:27:24;230.90;;;109.17;;
47173;SDS011;36730;49.036;9.094;2022-10-16T08:29:50;197.13;;;99.83;;
47173;SDS011;36730;49.036;9.094;2022-10-16T08:32:15;212.70;;;106.80;;
47173;SDS011;36730;49.036;9.094;2022-10-16T08:34:41;215.40;;;108.57;;
47173;SDS011;36730;49.036;9.094;2022-10-16T08:37:06;207.53;;;107.17;;
47173;SDS011;36730;49.036;9.094;2022-10-16T08:39:36;222.70;;;110.10;;
47173;SDS011;36730;49.036;9.094;2022-10-16T08:47:24;234.65;;;116.57;;
47173;SDS011;36730;49.036;9.094;2022-10-16T08:49:57;254.18;;;122.03;;
47173;SDS011;36730;49.036;9.094;2022-10-16T08:52:32;230.18;;;115.50;;
47173;SDS011;36730;49.036;9.094;2022-10-16T08:55:00;226.70;;;119.03;;
47173;SDS011;36730;49.036;9.094;2022-10-16T08:57:27;250.35;;;126.70;;
47173;SDS011;36730;49.036;9.094;2022-10-16T08:59:53;282.55;;;134.48;;
47173;SDS011;36730;49.036;9.094;2022-10-16T09:08:09;265.08;;;130.75;;
47173;SDS011;36730;49.036;9.094;2022-10-16T09:16:21;275.17;;;132.90;;
47173;SDS011;36730;49.036;9.094;2022-10-16T09:18:54;282.60;;;136.18;;
47173;SDS011;36730;49.036;9.094;2022-10-16T09:21:32;270.35;;;132.82;;
47173;SDS011;36730;49.036;9.094;2022-10-16T09:24:21;294.08;;;146.98;;
47173;SDS011;36730;49.036;9.094;2022-10-16T09:26:49;304.58;;;145.85;;
47173;SDS011;36730;49.036;9.094;2022-10-16T09:29:15;285.10;;;141.23;;
47173;SDS011;36730;49.036;9.094;2022-10-16T09:31:42;307.05;;;151.35;;
47173;SDS011;36730;49.036;9.094;2022-10-16T09:34:17;316.98;;;155.45;;
47173;SDS011;36730;49.036;9.094;2022-10-16T09:36:57;302.65;;;152.23;;
47173;SDS011;36730;49.036;9.094;2022-10-16T09:39:24;342.48;;;162.10;;
47173;SDS011;36730;49.036;9.094;2022-10-16T09:41:50;313.50;;;160.48;;
47173;SDS011;36730;49.036;9.094;2022-10-16T09:44:21;332.30;;;160.95;;
47173;SDS011;36730;49.036;9.094;2022-10-16T09:47:00;316.75;;;157.35;;
47173;SDS011;36730;49.036;9.094;2022-10-16T09:49:30;293.08;;;144.82;;
47173;SDS011;36730;49.036;9.094;2022-10-16T09:52:03;291.93;;;148.10;;
47173;SDS011;36730;49.036;9.094;2022-10-16T09:54:48;284.40;;;144.18;;
47173;SDS011;36730;49.036;9.094;2022-10-16T09:57:15;293.60;;;151.27;;
47173;SDS011;36730;49.036;9.094;2022-10-16T09:59:47;273.48;;;141.95;;
47173;SDS011;36730;49.036;9.094;2022-10-16T10:02:13;273.20;;;138.30;;
47173;SDS011;36730;49.036;9.094;2022-10-16T10:04:41;279.98;;;139.90;;
47173;SDS011;36730;49.036;9.094;2022-10-16T10:07:20;268.67;;;138.20;;
47173;SDS011;36730;49.036;9.094;2022-10-16T10:09:50;268.58;;;141.40;;
47173;SDS011;36730;49.036;9.094;2022-10-16T10:12:17;267.58;;;137.32;;
47173;SDS011;36730;49.036;9.094;2022-10-16T10:14:52;269.98;;;142.93;;
47173;SDS011;36730;49.036;9.094;2022-10-16T10:17:21;261.70;;;139.15;;
47173;SDS011;36730;49.036;9.094;2022-10-16T10:20:01;264.63;;;140.55;;
47173;SDS011;36730;49.036;9.094;2022-10-16T10:23:00;272.50;;;140.50;;
47173;SDS011;36730;49.036;9.094;2022-10-16T10:31:29;273.27;;;143.02;;
47173;SDS011;36730;49.036;9.094;2022-10-16T10:37:37;284.00;;;144.30;;
47173;SDS011;36730;49.036;9.094;2022-10-16T10:47:12;290.35;;;145.45;;
47173;SDS011;36730;49.036;9.094;2022-10-16T10:49:19;262.15;;;141.80;;
47173;SDS011;36730;49.036;9.094;2022-10-16T10:55:02;279.20;;;141.25;;
47173;SDS011;36730;49.036;9.094;2022-10-16T10:57:38;292.80;;;148.48;;
47173;SDS011;36730;49.036;9.094;2022-10-16T11:03:13;291.77;;;142.35;;
47173;SDS011;36730;49.036;9.094;2022-10-16T11:08:47;262.95;;;139.52;;
47173;SDS011;36730;49.036;9.094;2022-10-16T11:11:34;265.02;;;142.60;;
47173;SDS011;36730;49.036;9.094;2022-10-16T11:14:16;278.55;;;141.57;;
47173;SDS011;36730;49.036;9.094;2022-10-16T11:21:56;271.63;;;140.88;;
47173;SDS011;36730;49.036;9.094;2022-10-16T11:30:08;265.98;;;139.68;;
47173;SDS011;36730;49.036;9.094;2022-10-16T11:33:24;266.55;;;144.63;;
47173;SDS011;36730;49.036;9.094;2022-10-16T11:40:42;273.85;;;143.95;;
47173;SDS011;36730;49.036;9.094;2022-10-16T11:43:13;283.55;;;149.43;;
47173;SDS011;36730;49.036;9.094;2022-10-16T11:45:55;269.08;;;145.82;;
47173;SDS011;36730;49.036;9.094;2022-10-16T11:51:26;262.70;;;141.48;;
47173;SDS011;36730;49.036;9.094;2022-10-16T11:54:28;271.40;;;143.05;;
47173;SDS011;36730;49.036;9.094;2022-10-16T11:57:10;258.97;;;144.20;;
47173;SDS011;36730;49.036;9.094;2022-10-16T11:59:42;257.23;;;140.98;;
47173;SDS011;36730;49.036;9.094;2022-10-16T12:05:06;273.67;;;144.68;;
47173;SDS011;36730;49.036;9.094;2022-10-16T12:10:31;262.83;;;140.30;;
47173;SDS011;36730;49.036;9.094;2022-10-16T12:13:01;271.20;;;143.10;;
47173;SDS011;36730;49.036;9.094;2022-10-16T12:17:55;264.40;;;140.82;;
47173;SDS011;36730;49.036;9.094;2022-10-16T12:20:28;260.10;;;143.40;;
47173;SDS011;36730;49.036;9.094;2022-10-16T12:25:30;260.30;;;142.60;;
47173;SDS011;36730;49.036;9.094;2022-10-16T12:28:17;261.67;;;140.75;;
47173;SDS011;36730;49.036;9.094;2022-10-16T12:30:54;263.02;;;140.18;;
47173;SDS011;36730;49.036;9.094;2022-10-16T12:33:26;264.40;;;139.55;;
47173;SDS011;36730;49.036;9.094;2022-10-16T12:35:58;264.17;;;138.95;;
47173;SDS011;36730;49.036;9.094;2022-10-16T12:41:23;259.02;;;141.25;;
47173;SDS011;36730;49.036;9.094;2022-10-16T12:43:56;264.60;;;140.60;;
47173;SDS011;36730;49.036;9.094;2022-10-16T12:48:49;273.17;;;145.00;;
47173;SDS011;36730;49.036;9.094;2022-10-16T12:51:22;251.90;;;139.60;;
47173;SDS011;36730;49.036;9.094;2022-10-16T12:53:58;269.23;;;144.70;;
47173;SDS011;36730;49.036;9.094;2022-10-16T12:56:27;255.32;;;142.50;;
47173;SDS011;36730;49.036;9.094;2022-10-16T12:59:22;266.55;;;137.77;;
47173;SDS011;36730;49.036;9.094;2022-10-16T13:15:48;264.80;;;142.82;;
47173;SDS011;36730;49.036;9.094;2022-10-16T13:26:31;248.48;;;140.13;;
47173;SDS011;36730;49.036;9.094;2022-10-16T13:29:11;251.73;;;140.07;;
47173;SDS011;36730;49.036;9.094;2022-10-16T13:31:38;267.15;;;146.13;;
47173;SDS011;36730;49.036;9.094;2022-10-16T13:34:05;248.98;;;138.30;;
47173;SDS011;36730;49.036;9.094;2022-10-16T13:36:43;250.30;;;140.23;;
47173;SDS011;36730;49.036;9.094;2022-10-16T13:39:13;258.55;;;143.18;;
47173;SDS011;36730;49.036;9.094;2022-10-16T13:41:45;252.55;;;140.60;;
47173;SDS011;36730;49.036;9.094;2022-10-16T13:44:20;261.08;;;143.23;;
47173;SDS011;36730;49.036;9.094;2022-10-16T13:46:46;242.82;;;134.68;;
47173;SDS011;36730;49.036;9.094;2022-10-16T13:49:22;246.07;;;137.30;;
47173;SDS011;36730;49.036;9.094;2022-10-16T13:51:58;251.23;;;137.33;;
47173;SDS011;36730;49.036;9.094;2022-10-16T13:54:25;249.30;;;139.57;;
47173;SDS011;36730;49.036;9.094;2022-10-16T13:56:51;269.10;;;144.88;;
47173;SDS011;36730;49.036;9.094;2022-10-16T13:59:27;248.50;;;137.27;;
47173;SDS011;36730;49.036;9.094;2022-10-16T14:01:59;259.80;;;141.40;;
47173;SDS011;36730;49.036;9.094;2022-10-16T14:04:31;251.50;;;140.18;;
47173;SDS011;36730;49.036;9.094;2022-10-16T14:06:58;251.43;;;140.98;;
47173;SDS011;36730;49.036;9.094;2022-10-16T14:11:55;250.38;;;137.43;;
47173;SDS011;36730;49.036;9.094;2022-10-16T14:14:38;264.23;;;141.93;;
47173;SDS011;36730;49.036;9.094;2022-10-16T14:17:13;252.65;;;137.20;;
47173;SDS011;36730;49.036;9.094;2022-10-16T14:19:48;249.43;;;137.77;;
47173;SDS011;36730;49.036;9.094;2022-10-16T14:22:30;252.35;;;140.02;;
47173;SDS011;36730;49.036;9.094;2022-10-16T14:24:59;262.60;;;141.63;;
47173;SDS011;36730;49.036;9.094;2022-10-16T14:27:34;261.92;;;144.48;;
47173;SDS011;36730;49.036;9.094;2022-10-16T14:32:39;274.25;;;145.23;;
47173;SDS011;36730;49.036;9.094;2022-10-16T14:38:15;255.30;;;143.40;;
47173;SDS011;36730;49.036;9.094;2022-10-16T14:40:46;248.02;;;138.75;;
47173;SDS011;36730;49.036;9.094;2022-10-16T14:43:14;240.27;;;137.30;;
47173;SDS011;36730;49.036;9.094;2022-10-16T14:45:50;256.35;;;137.60;;
47173;SDS011;36730;49.036;9.094;2022-10-16T14:48:19;260.38;;;142.73;;
47173;SDS011;36730;49.036;9.094;2022-10-16T14:50:45;253.18;;;139.32;;
47173;SDS011;36730;49.036;9.094;2022-10-16T14:53:11;248.95;;;136.75;;
47173;SDS011;36730;49.036;9.094;2022-10-16T14:55:38;242.70;;;137.32;;
47173;SDS011;36730;49.036;9.094;2022-10-16T14:58:05;240.88;;;139.40;;
47173;SDS011;36730;49.036;9.094;2022-10-16T15:00:34;261.42;;;143.18;;
47173;SDS011;36730;49.036;9.094;2022-10-16T15:03:00;237.73;;;138.57;;
47173;SDS011;36730;49.036;9.094;2022-10-16T15:05:26;255.33;;;139.07;;
47173;SDS011;36730;49.036;9.094;2022-10-16T15:07:53;244.02;;;138.43;;
47173;SDS011;36730;49.036;9.094;2022-10-16T15:10:20;267.25;;;141.38;;
47173;SDS011;36730;49.036;9.094;2022-10-16T15:12:47;269.13;;;138.73;;
47173;SDS011;36730;49.036;9.094;2022-10-16T15:17:51;235.45;;;138.15;;
47173;SDS011;36730;49.036;9.094;2022-10-16T15:20:20;247.13;;;139.55;;
47173;SDS011;36730;49.036;9.094;2022-10-16T15:22:46;254.93;;;138.33;;
47173;SDS011;36730;49.036;9.094;2022-10-16T15:27:55;264.42;;;142.45;;
47173;SDS011;36730;49.036;9.094;2022-10-16T15:30:21;247.20;;;133.77;;
47173;SDS011;36730;49.036;9.094;2022-10-16T15:32:46;234.20;;;138.95;;
47173;SDS011;36730;49.036;9.094;2022-10-16T15:35:12;251.90;;;138.77;;
47173;SDS011;36730;49.036;9.094;2022-10-16T15:37:37;254.17;;;141.87;;
47173;SDS011;36730;49.036;9.094;2022-10-16T15:40:03;270.60;;;143.30;;
47173;SDS011;36730;49.036;9.094;2022-10-16T15:42:29;260.35;;;144.25;;
47173;SDS011;36730;49.036;9.094;2022-10-16T15:44:54;265.93;;;146.03;;
47173;SDS011;36730;49.036;9.094;2022-10-16T15:47:20;247.17;;;137.17;;
47173;SDS011;36730;49.036;9.094;2022-10-16T15:49:46;261.65;;;144.65;;
47173;SDS011;36730;49.036;9.094;2022-10-16T15:52:12;248.00;;;138.33;;
47173;SDS011;36730;49.036;9.094;2022-10-16T15:54:37;247.93;;;134.73;;
47173;SDS011;36730;49.036;9.094;2022-10-16T15:57:03;267.80;;;142.50;;
47173;SDS011;36730;49.036;9.094;2022-10-16T15:59:28;257.60;;;141.17;;
47173;SDS011;36730;49.036;9.094;2022-10-16T16:01:54;261.60;;;138.30;;
47173;SDS011;36730;49.036;9.094;2022-10-16T16:04:19;253.13;;;140.23;;
47173;SDS011;36730;49.036;9.094;2022-10-16T16:06:45;247.10;;;138.97;;
47173;SDS011;36730;49.036;9.094;2022-10-16T16:09:11;247.40;;;142.77;;
47173;SDS011;36730;49.036;9.094;2022-10-16T16:11:37;253.70;;;143.02;;
47173;SDS011;36730;49.036;9.094;2022-10-16T16:14:04;252.70;;;145.48;;
47173;SDS011;36730;49.036;9.094;2022-10-16T16:16:36;259.02;;;144.77;;
47173;SDS011;36730;49.036;9.094;2022-10-16T16:19:03;250.55;;;142.73;;
47173;SDS011;36730;49.036;9.094;2022-10-16T16:21:31;249.02;;;144.23;;
47173;SDS011;36730;49.036;9.094;2022-10-16T16:23:57;251.90;;;138.00;;
47173;SDS011;36730;49.036;9.094;2022-10-16T16:26:26;250.57;;;139.70;;
47173;SDS011;36730;49.036;9.094;2022-10-16T16:28:57;262.33;;;138.75;;
47173;SDS011;36730;49.036;9.094;2022-10-16T16:31:23;253.25;;;140.43;;
47173;SDS011;36730;49.036;9.094;2022-10-16T16:33:50;248.23;;;140.07;;
47173;SDS011;36730;49.036;9.094;2022-10-16T16:36:16;251.30;;;143.60;;
47173;SDS011;36730;49.036;9.094;2022-10-16T16:38:43;243.38;;;140.13;;
47173;SDS011;36730;49.036;9.094;2022-10-16T16:43:38;259.45;;;141.63;;